sensor_id;sensor_type;location;lat;lon;timestamp;temperature;humidity
17208;DHT22;8720;48.488;9.202;2023-12-20T00:01:03;9.00;62.20
17208;DHT22;8720;48.488;9.202;2023-12-20T00:03:30;9.00;62.20
17208;DHT22;8720;48.488;9.202;2023-12-20T00:05:58;9.00;62.10
17208;DHT22;8720;48.488;9.202;2023-12-20T00:08:25;9.00;62.10
17208;DHT22;8720;48.488;9.202;2023-12-20T00:10:52;9.00;62.10
17208;DHT22;8720;48.488;9.202;2023-12-20T00:13:21;9.00;62.10
17208;DHT22;8720;48.488;9.202;2023-12-20T00:15:48;9.00;61.90
17208;DHT22;8720;48.488;9.202;2023-12-20T00:18:16;9.00;62.10
17208;DHT22;8720;48.488;9.202;2023-12-20T00:20:43;9.00;62.30
17208;DHT22;8720;48.488;9.202;2023-12-20T00:23:10;9.00;62.20
17208;DHT22;8720;48.488;9.202;2023-12-20T00:25:37;9.00;62.00
17208;DHT22;8720;48.488;9.202;2023-12-20T00:28:06;9.00;62.20
17208;DHT22;8720;48.488;9.202;2023-12-20T00:30:34;9.00;62.10
17208;DHT22;8720;48.488;9.202;2023-12-20T00:33:02;9.00;61.90
17208;DHT22;8720;48.488;9.202;2023-12-20T00:35:30;9.10;62.30
17208;DHT22;8720;48.488;9.202;2023-12-20T00:37:58;9.10;62.50
17208;DHT22;8720;48.488;9.202;2023-12-20T00:40:26;9.10;62.30
17208;DHT22;8720;48.488;9.202;2023-12-20T00:42:53;9.10;62.40
17208;DHT22;8720;48.488;9.202;2023-12-20T00:45:20;9.10;62.50
17208;DHT22;8720;48.488;9.202;2023-12-20T00:47:49;9.10;62.50
17208;DHT22;8720;48.488;9.202;2023-12-20T00:50:16;9.10;62.10
17208;DHT22;8720;48.488;9.202;2023-12-20T00:52:43;9.10;62.40
17208;DHT22;8720;48.488;9.202;2023-12-20T00:55:11;9.10;62.40
17208;DHT22;8720;48.488;9.202;2023-12-20T00:57:39;9.10;62.40
17208;DHT22;8720;48.488;9.202;2023-12-20T01:00:07;9.10;62.50
17208;DHT22;8720;48.488;9.202;2023-12-20T01:02:35;9.10;62.40
17208;DHT22;8720;48.488;9.202;2023-12-20T01:05:05;9.10;62.50
17208;DHT22;8720;48.488;9.202;2023-12-20T01:07:34;9.10;62.30
17208;DHT22;8720;48.488;9.202;2023-12-20T01:10:02;9.20;62.80
17208;DHT22;8720;48.488;9.202;2023-12-20T01:12:30;9.20;62.80
17208;DHT22;8720;48.488;9.202;2023-12-20T01:14:57;9.20;62.90
17208;DHT22;8720;48.488;9.202;2023-12-20T01:17:25;9.20;62.90
17208;DHT22;8720;48.488;9.202;2023-12-20T01:19:52;9.20;62.90
17208;DHT22;8720;48.488;9.202;2023-12-20T01:22:20;9.20;63.00
17208;DHT22;8720;48.488;9.202;2023-12-20T01:24:48;9.20;62.70
17208;DHT22;8720;48.488;9.202;2023-12-20T01:27:15;9.20;63.00
17208;DHT22;8720;48.488;9.202;2023-12-20T01:29:42;9.20;63.00
17208;DHT22;8720;48.488;9.202;2023-12-20T01:32:10;9.20;63.10
17208;DHT22;8720;48.488;9.202;2023-12-20T01:34:37;9.20;63.20
17208;DHT22;8720;48.488;9.202;2023-12-20T01:37:04;9.20;63.90
17208;DHT22;8720;48.488;9.202;2023-12-20T01:39:33;9.20;63.40
17208;DHT22;8720;48.488;9.202;2023-12-20T01:42:00;9.20;63.30
17208;DHT22;8720;48.488;9.202;2023-12-20T01:44:27;9.20;63.70
17208;DHT22;8720;48.488;9.202;2023-12-20T01:46:55;9.20;63.90
17208;DHT22;8720;48.488;9.202;2023-12-20T01:49:23;9.20;64.00
17208;DHT22;8720;48.488;9.202;2023-12-20T01:51:51;9.20;64.00
17208;DHT22;8720;48.488;9.202;2023-12-20T01:54:19;9.20;64.20
17208;DHT22;8720;48.488;9.202;2023-12-20T01:56:49;9.20;64.20
17208;DHT22;8720;48.488;9.202;2023-12-20T01:59:18;9.10;64.20
17208;DHT22;8720;48.488;9.202;2023-12-20T02:01:47;9.10;64.50
17208;DHT22;8720;48.488;9.202;2023-12-20T02:04:15;9.10;64.80
17208;DHT22;8720;48.488;9.202;2023-12-20T02:06:43;9.00;64.90
17208;DHT22;8720;48.488;9.202;2023-12-20T02:09:13;9.00;65.10
17208;DHT22;8720;48.488;9.202;2023-12-20T02:11:41;9.00;65.30
17208;DHT22;8720;48.488;9.202;2023-12-20T02:14:11;9.00;66.30
17208;DHT22;8720;48.488;9.202;2023-12-20T02:16:39;8.90;65.60
17208;DHT22;8720;48.488;9.202;2023-12-20T02:19:13;8.90;66.10
17208;DHT22;8720;48.488;9.202;2023-12-20T02:21:42;8.90;65.90
17208;DHT22;8720;48.488;9.202;2023-12-20T02:24:10;8.90;66.10
17208;DHT22;8720;48.488;9.202;2023-12-20T02:26:37;8.80;66.30
17208;DHT22;8720;48.488;9.202;2023-12-20T02:29:05;8.80;66.50
17208;DHT22;8720;48.488;9.202;2023-12-20T02:31:32;8.80;66.70
17208;DHT22;8720;48.488;9.202;2023-12-20T02:33:59;8.70;66.80
17208;DHT22;8720;48.488;9.202;2023-12-20T02:36:27;8.70;67.00
17208;DHT22;8720;48.488;9.202;2023-12-20T02:38:55;8.70;67.20
17208;DHT22;8720;48.488;9.202;2023-12-20T02:41:23;8.70;67.50
17208;DHT22;8720;48.488;9.202;2023-12-20T02:43:50;8.70;67.80
17208;DHT22;8720;48.488;9.202;2023-12-20T02:46:17;8.60;67.80
17208;DHT22;8720;48.488;9.202;2023-12-20T02:48:45;8.60;68.10
17208;DHT22;8720;48.488;9.202;2023-12-20T02:51:12;8.60;68.20
17208;DHT22;8720;48.488;9.202;2023-12-20T02:53:40;8.60;68.40
17208;DHT22;8720;48.488;9.202;2023-12-20T02:56:08;8.60;68.50
17208;DHT22;8720;48.488;9.202;2023-12-20T02:58:36;8.60;68.70
17208;DHT22;8720;48.488;9.202;2023-12-20T03:03:45;8.60;69.10
17208;DHT22;8720;48.488;9.202;2023-12-20T03:06:16;8.60;69.20
17208;DHT22;8720;48.488;9.202;2023-12-20T03:08:44;8.60;69.00
17208;DHT22;8720;48.488;9.202;2023-12-20T03:11:13;8.60;69.40
17208;DHT22;8720;48.488;9.202;2023-12-20T03:13:40;8.60;69.30
17208;DHT22;8720;48.488;9.202;2023-12-20T03:16:10;8.60;69.50
17208;DHT22;8720;48.488;9.202;2023-12-20T03:18:39;8.60;69.40
17208;DHT22;8720;48.488;9.202;2023-12-20T03:21:06;8.60;69.70
17208;DHT22;8720;48.488;9.202;2023-12-20T03:23:33;8.60;69.70
17208;DHT22;8720;48.488;9.202;2023-12-20T03:26:01;8.60;69.60
17208;DHT22;8720;48.488;9.202;2023-12-20T03:28:30;8.60;69.70
17208;DHT22;8720;48.488;9.202;2023-12-20T03:30:59;8.60;69.70
17208;DHT22;8720;48.488;9.202;2023-12-20T03:33:28;8.60;70.50
17208;DHT22;8720;48.488;9.202;2023-12-20T03:35:55;8.60;69.90
17208;DHT22;8720;48.488;9.202;2023-12-20T03:38:22;8.60;70.00
17208;DHT22;8720;48.488;9.202;2023-12-20T03:40:50;8.70;70.20
17208;DHT22;8720;48.488;9.202;2023-12-20T03:43:17;8.60;70.10
17208;DHT22;8720;48.488;9.202;2023-12-20T03:45:46;8.60;70.20
17208;DHT22;8720;48.488;9.202;2023-12-20T03:48:13;8.60;70.20
17208;DHT22;8720;48.488;9.202;2023-12-20T03:50:41;8.60;70.50
17208;DHT22;8720;48.488;9.202;2023-12-20T03:53:08;8.60;70.80
17208;DHT22;8720;48.488;9.202;2023-12-20T03:55:36;8.60;70.80
17208;DHT22;8720;48.488;9.202;2023-12-20T03:58:03;8.60;71.00
17208;DHT22;8720;48.488;9.202;2023-12-20T04:00:30;8.60;71.10
17208;DHT22;8720;48.488;9.202;2023-12-20T04:02:59;8.60;71.20
17208;DHT22;8720;48.488;9.202;2023-12-20T04:05:26;8.60;70.90
17208;DHT22;8720;48.488;9.202;2023-12-20T04:07:53;8.60;71.10
17208;DHT22;8720;48.488;9.202;2023-12-20T04:10:21;8.60;71.10
17208;DHT22;8720;48.488;9.202;2023-12-20T04:12:48;8.60;71.30
17208;DHT22;8720;48.488;9.202;2023-12-20T04:15:15;8.60;71.30
17208;DHT22;8720;48.488;9.202;2023-12-20T04:17:43;8.60;71.40
17208;DHT22;8720;48.488;9.202;2023-12-20T04:20:11;8.60;71.40
17208;DHT22;8720;48.488;9.202;2023-12-20T04:22:39;8.50;71.20
17208;DHT22;8720;48.488;9.202;2023-12-20T04:25:06;8.50;71.40
17208;DHT22;8720;48.488;9.202;2023-12-20T04:27:34;8.60;71.40
17208;DHT22;8720;48.488;9.202;2023-12-20T04:30:02;8.50;71.50
17208;DHT22;8720;48.488;9.202;2023-12-20T04:32:30;8.50;71.70
17208;DHT22;8720;48.488;9.202;2023-12-20T04:34:57;8.50;71.70
17208;DHT22;8720;48.488;9.202;2023-12-20T04:37:25;8.50;71.70
17208;DHT22;8720;48.488;9.202;2023-12-20T04:39:53;8.50;71.50
17208;DHT22;8720;48.488;9.202;2023-12-20T04:42:20;8.50;71.80
17208;DHT22;8720;48.488;9.202;2023-12-20T04:44:47;8.50;71.70
17208;DHT22;8720;48.488;9.202;2023-12-20T04:47:15;8.50;71.70
17208;DHT22;8720;48.488;9.202;2023-12-20T04:49:42;8.50;71.60
17208;DHT22;8720;48.488;9.202;2023-12-20T04:52:09;8.50;71.60
17208;DHT22;8720;48.488;9.202;2023-12-20T04:54:38;8.40;71.60
17208;DHT22;8720;48.488;9.202;2023-12-20T04:57:05;8.40;71.60
17208;DHT22;8720;48.488;9.202;2023-12-20T04:59:32;8.40;71.80
17208;DHT22;8720;48.488;9.202;2023-12-20T05:02:00;8.40;71.80
17208;DHT22;8720;48.488;9.202;2023-12-20T05:04:27;8.40;71.80
17208;DHT22;8720;48.488;9.202;2023-12-20T05:06:54;8.40;71.90
17208;DHT22;8720;48.488;9.202;2023-12-20T05:09:22;8.40;71.90
17208;DHT22;8720;48.488;9.202;2023-12-20T05:11:50;8.40;72.10
17208;DHT22;8720;48.488;9.202;2023-12-20T05:14:18;8.40;71.70
17208;DHT22;8720;48.488;9.202;2023-12-20T05:16:45;8.40;71.70
17208;DHT22;8720;48.488;9.202;2023-12-20T05:19:12;8.40;71.70
17208;DHT22;8720;48.488;9.202;2023-12-20T05:21:39;8.40;71.70
17208;DHT22;8720;48.488;9.202;2023-12-20T05:24:07;8.40;71.60
17208;DHT22;8720;48.488;9.202;2023-12-20T05:26:35;8.40;71.50
17208;DHT22;8720;48.488;9.202;2023-12-20T05:29:03;8.40;71.40
17208;DHT22;8720;48.488;9.202;2023-12-20T05:31:31;8.40;71.20
17208;DHT22;8720;48.488;9.202;2023-12-20T05:33:59;8.40;71.30
17208;DHT22;8720;48.488;9.202;2023-12-20T05:36:26;8.40;71.40
17208;DHT22;8720;48.488;9.202;2023-12-20T05:38:54;8.40;71.30
17208;DHT22;8720;48.488;9.202;2023-12-20T05:41:21;8.40;71.20
17208;DHT22;8720;48.488;9.202;2023-12-20T05:43:48;8.40;71.20
17208;DHT22;8720;48.488;9.202;2023-12-20T05:46:17;8.40;71.20
17208;DHT22;8720;48.488;9.202;2023-12-20T05:48:45;8.40;70.90
17208;DHT22;8720;48.488;9.202;2023-12-20T05:51:12;8.40;71.10
17208;DHT22;8720;48.488;9.202;2023-12-20T05:53:39;8.40;71.10
17208;DHT22;8720;48.488;9.202;2023-12-20T05:56:07;8.40;71.10
17208;DHT22;8720;48.488;9.202;2023-12-20T05:58:34;8.40;71.10
17208;DHT22;8720;48.488;9.202;2023-12-20T06:01:03;8.40;71.00
17208;DHT22;8720;48.488;9.202;2023-12-20T06:03:32;8.40;70.50
17208;DHT22;8720;48.488;9.202;2023-12-20T06:06:05;8.40;70.60
17208;DHT22;8720;48.488;9.202;2023-12-20T06:08:33;8.40;70.40
17208;DHT22;8720;48.488;9.202;2023-12-20T06:11:01;8.40;71.00
17208;DHT22;8720;48.488;9.202;2023-12-20T06:13:28;8.40;71.00
17208;DHT22;8720;48.488;9.202;2023-12-20T06:15:55;8.40;71.00
17208;DHT22;8720;48.488;9.202;2023-12-20T06:18:23;8.40;71.10
17208;DHT22;8720;48.488;9.202;2023-12-20T06:20:52;8.40;71.00
17208;DHT22;8720;48.488;9.202;2023-12-20T06:23:19;8.40;70.90
17208;DHT22;8720;48.488;9.202;2023-12-20T06:25:47;8.40;71.20
17208;DHT22;8720;48.488;9.202;2023-12-20T06:28:14;8.40;71.30
17208;DHT22;8720;48.488;9.202;2023-12-20T06:30:41;8.40;71.40
17208;DHT22;8720;48.488;9.202;2023-12-20T06:33:09;8.40;71.30
17208;DHT22;8720;48.488;9.202;2023-12-20T06:35:37;8.40;71.40
17208;DHT22;8720;48.488;9.202;2023-12-20T06:38:05;8.40;71.40
17208;DHT22;8720;48.488;9.202;2023-12-20T06:40:34;8.30;71.10
17208;DHT22;8720;48.488;9.202;2023-12-20T06:43:01;8.40;71.40
17208;DHT22;8720;48.488;9.202;2023-12-20T06:45:29;8.40;71.50
17208;DHT22;8720;48.488;9.202;2023-12-20T06:47:56;8.40;71.50
17208;DHT22;8720;48.488;9.202;2023-12-20T06:50:24;8.40;71.60
17208;DHT22;8720;48.488;9.202;2023-12-20T06:52:51;8.40;71.50
17208;DHT22;8720;48.488;9.202;2023-12-20T06:55:20;8.40;71.60
17208;DHT22;8720;48.488;9.202;2023-12-20T06:57:47;8.40;71.30
17208;DHT22;8720;48.488;9.202;2023-12-20T07:00:15;8.40;71.60
17208;DHT22;8720;48.488;9.202;2023-12-20T07:02:44;8.40;71.40
17208;DHT22;8720;48.488;9.202;2023-12-20T07:05:16;8.40;71.30
17208;DHT22;8720;48.488;9.202;2023-12-20T07:07:45;8.40;71.00
17208;DHT22;8720;48.488;9.202;2023-12-20T07:10:13;8.40;71.40
17208;DHT22;8720;48.488;9.202;2023-12-20T07:12:42;8.40;71.40
17208;DHT22;8720;48.488;9.202;2023-12-20T07:15:10;8.40;71.10
17208;DHT22;8720;48.488;9.202;2023-12-20T07:17:37;8.50;71.30
17208;DHT22;8720;48.488;9.202;2023-12-20T07:20:06;8.50;71.30
17208;DHT22;8720;48.488;9.202;2023-12-20T07:22:36;8.50;71.30
17208;DHT22;8720;48.488;9.202;2023-12-20T07:25:05;8.50;71.30
17208;DHT22;8720;48.488;9.202;2023-12-20T07:27:33;8.50;71.10
17208;DHT22;8720;48.488;9.202;2023-12-20T07:30:02;8.50;71.30
17208;DHT22;8720;48.488;9.202;2023-12-20T07:32:30;8.50;70.90
17208;DHT22;8720;48.488;9.202;2023-12-20T07:34:57;8.50;71.30
17208;DHT22;8720;48.488;9.202;2023-12-20T07:37:25;8.50;71.30
17208;DHT22;8720;48.488;9.202;2023-12-20T07:39:52;8.60;71.30
17208;DHT22;8720;48.488;9.202;2023-12-20T07:42:19;8.60;71.30
17208;DHT22;8720;48.488;9.202;2023-12-20T07:44:47;8.60;72.00
17208;DHT22;8720;48.488;9.202;2023-12-20T07:47:16;8.60;71.30
17208;DHT22;8720;48.488;9.202;2023-12-20T07:49:47;8.60;71.00
17208;DHT22;8720;48.488;9.202;2023-12-20T07:52:15;8.60;71.30
17208;DHT22;8720;48.488;9.202;2023-12-20T07:54:42;8.70;71.30
17208;DHT22;8720;48.488;9.202;2023-12-20T07:57:10;8.70;71.30
17208;DHT22;8720;48.488;9.202;2023-12-20T07:59:37;8.70;71.30
17208;DHT22;8720;48.488;9.202;2023-12-20T08:02:05;8.70;71.30
17208;DHT22;8720;48.488;9.202;2023-12-20T08:04:34;8.70;71.10
17208;DHT22;8720;48.488;9.202;2023-12-20T08:07:02;8.70;70.70
17208;DHT22;8720;48.488;9.202;2023-12-20T08:09:30;8.70;70.90
17208;DHT22;8720;48.488;9.202;2023-12-20T08:11:57;8.80;71.00
17208;DHT22;8720;48.488;9.202;2023-12-20T08:14:25;8.80;71.20
17208;DHT22;8720;48.488;9.202;2023-12-20T08:16:53;8.80;71.30
17208;DHT22;8720;48.488;9.202;2023-12-20T08:19:20;8.80;71.30
17208;DHT22;8720;48.488;9.202;2023-12-20T08:21:49;8.80;71.30
17208;DHT22;8720;48.488;9.202;2023-12-20T08:24:16;8.80;70.90
17208;DHT22;8720;48.488;9.202;2023-12-20T08:26:44;8.80;71.00
17208;DHT22;8720;48.488;9.202;2023-12-20T08:29:13;8.80;71.10
17208;DHT22;8720;48.488;9.202;2023-12-20T08:31:40;8.80;70.90
17208;DHT22;8720;48.488;9.202;2023-12-20T08:34:07;8.80;71.20
17208;DHT22;8720;48.488;9.202;2023-12-20T08:36:37;8.90;71.30
17208;DHT22;8720;48.488;9.202;2023-12-20T08:39:06;8.90;71.20
17208;DHT22;8720;48.488;9.202;2023-12-20T08:41:35;8.80;71.30
17208;DHT22;8720;48.488;9.202;2023-12-20T08:44:03;8.90;71.20
17208;DHT22;8720;48.488;9.202;2023-12-20T08:46:30;8.90;71.30
17208;DHT22;8720;48.488;9.202;2023-12-20T08:48:58;9.00;71.20
17208;DHT22;8720;48.488;9.202;2023-12-20T08:51:26;9.00;71.00
17208;DHT22;8720;48.488;9.202;2023-12-20T08:53:54;9.00;70.80
17208;DHT22;8720;48.488;9.202;2023-12-20T08:56:23;9.10;70.90
17208;DHT22;8720;48.488;9.202;2023-12-20T08:58:50;9.10;70.60
17208;DHT22;8720;48.488;9.202;2023-12-20T09:01:17;9.10;70.80
17208;DHT22;8720;48.488;9.202;2023-12-20T09:03:45;9.20;70.70
17208;DHT22;8720;48.488;9.202;2023-12-20T09:06:12;9.20;70.70
17208;DHT22;8720;48.488;9.202;2023-12-20T09:08:39;9.20;70.60
17208;DHT22;8720;48.488;9.202;2023-12-20T09:11:07;9.20;70.50
17208;DHT22;8720;48.488;9.202;2023-12-20T09:13:38;9.20;71.10
17208;DHT22;8720;48.488;9.202;2023-12-20T09:16:06;9.20;69.90
17208;DHT22;8720;48.488;9.202;2023-12-20T09:18:33;9.20;70.50
17208;DHT22;8720;48.488;9.202;2023-12-20T09:21:00;9.20;70.70
17208;DHT22;8720;48.488;9.202;2023-12-20T09:23:28;9.20;70.70
17208;DHT22;8720;48.488;9.202;2023-12-20T09:25:55;9.30;71.00
17208;DHT22;8720;48.488;9.202;2023-12-20T09:28:22;9.30;70.60
17208;DHT22;8720;48.488;9.202;2023-12-20T09:30:51;9.20;70.30
17208;DHT22;8720;48.488;9.202;2023-12-20T09:33:18;9.20;69.50
17208;DHT22;8720;48.488;9.202;2023-12-20T09:35:46;9.20;69.50
17208;DHT22;8720;48.488;9.202;2023-12-20T09:38:13;9.10;69.00
17208;DHT22;8720;48.488;9.202;2023-12-20T09:40:43;9.10;68.70
17208;DHT22;8720;48.488;9.202;2023-12-20T09:43:12;9.00;68.00
17208;DHT22;8720;48.488;9.202;2023-12-20T09:45:42;8.90;67.00
17208;DHT22;8720;48.488;9.202;2023-12-20T09:48:18;8.90;67.00
17208;DHT22;8720;48.488;9.202;2023-12-20T09:50:46;8.80;66.50
17208;DHT22;8720;48.488;9.202;2023-12-20T09:53:15;8.70;67.40
17208;DHT22;8720;48.488;9.202;2023-12-20T09:55:44;8.70;67.10
17208;DHT22;8720;48.488;9.202;2023-12-20T09:58:12;8.60;67.20
17208;DHT22;8720;48.488;9.202;2023-12-20T10:00:39;8.60;67.20
17208;DHT22;8720;48.488;9.202;2023-12-20T10:03:07;8.60;67.20
17208;DHT22;8720;48.488;9.202;2023-12-20T10:05:37;8.50;67.20
17208;DHT22;8720;48.488;9.202;2023-12-20T10:08:06;8.50;66.60
17208;DHT22;8720;48.488;9.202;2023-12-20T10:10:33;8.50;66.70
17208;DHT22;8720;48.488;9.202;2023-12-20T10:13:02;8.40;66.80
17208;DHT22;8720;48.488;9.202;2023-12-20T10:15:32;8.40;66.80
17208;DHT22;8720;48.488;9.202;2023-12-20T10:18:00;8.40;67.00
17208;DHT22;8720;48.488;9.202;2023-12-20T10:20:28;8.40;67.30
17208;DHT22;8720;48.488;9.202;2023-12-20T10:22:57;8.40;67.30
17208;DHT22;8720;48.488;9.202;2023-12-20T10:25:26;8.40;66.80
17208;DHT22;8720;48.488;9.202;2023-12-20T10:28:09;8.40;67.10
17208;DHT22;8720;48.488;9.202;2023-12-20T10:30:37;8.40;65.20
17208;DHT22;8720;48.488;9.202;2023-12-20T10:33:06;8.30;66.40
17208;DHT22;8720;48.488;9.202;2023-12-20T10:35:34;8.30;66.40
17208;DHT22;8720;48.488;9.202;2023-12-20T10:38:04;8.30;66.30
17208;DHT22;8720;48.488;9.202;2023-12-20T10:40:35;8.30;65.10
17208;DHT22;8720;48.488;9.202;2023-12-20T10:43:04;8.20;65.10
17208;DHT22;8720;48.488;9.202;2023-12-20T10:45:31;8.20;65.40
17208;DHT22;8720;48.488;9.202;2023-12-20T10:48:00;8.20;65.30
17208;DHT22;8720;48.488;9.202;2023-12-20T10:50:29;8.10;65.30
17208;DHT22;8720;48.488;9.202;2023-12-20T10:52:58;8.10;65.50
17208;DHT22;8720;48.488;9.202;2023-12-20T10:55:27;8.10;65.50
17208;DHT22;8720;48.488;9.202;2023-12-20T10:57:59;8.10;65.80
17208;DHT22;8720;48.488;9.202;2023-12-20T11:00:29;8.10;65.10
17208;DHT22;8720;48.488;9.202;2023-12-20T11:03:00;8.10;65.30
17208;DHT22;8720;48.488;9.202;2023-12-20T11:05:36;8.10;64.90
17208;DHT22;8720;48.488;9.202;2023-12-20T11:08:13;8.10;64.80
17208;DHT22;8720;48.488;9.202;2023-12-20T11:10:56;8.10;64.40
17208;DHT22;8720;48.488;9.202;2023-12-20T11:13:32;8.10;63.90
17208;DHT22;8720;48.488;9.202;2023-12-20T11:16:03;8.10;64.30
17208;DHT22;8720;48.488;9.202;2023-12-20T11:18:32;8.20;64.50
17208;DHT22;8720;48.488;9.202;2023-12-20T11:21:01;8.20;64.40
17208;DHT22;8720;48.488;9.202;2023-12-20T11:23:30;8.20;64.00
17208;DHT22;8720;48.488;9.202;2023-12-20T11:26:02;8.20;64.50
17208;DHT22;8720;48.488;9.202;2023-12-20T11:28:30;8.30;64.20
17208;DHT22;8720;48.488;9.202;2023-12-20T11:30:58;8.30;64.70
17208;DHT22;8720;48.488;9.202;2023-12-20T11:33:36;8.40;64.20
17208;DHT22;8720;48.488;9.202;2023-12-20T11:36:12;8.40;63.60
17208;DHT22;8720;48.488;9.202;2023-12-20T11:38:53;8.40;62.70
17208;DHT22;8720;48.488;9.202;2023-12-20T11:41:24;8.50;62.30
17208;DHT22;8720;48.488;9.202;2023-12-20T11:43:53;8.50;63.00
17208;DHT22;8720;48.488;9.202;2023-12-20T11:46:22;8.60;62.90
17208;DHT22;8720;48.488;9.202;2023-12-20T11:48:50;8.60;63.30
17208;DHT22;8720;48.488;9.202;2023-12-20T11:51:18;8.60;62.60
17208;DHT22;8720;48.488;9.202;2023-12-20T11:53:51;8.70;63.20
17208;DHT22;8720;48.488;9.202;2023-12-20T11:56:19;8.70;61.90
17208;DHT22;8720;48.488;9.202;2023-12-20T11:58:47;8.70;63.00
17208;DHT22;8720;48.488;9.202;2023-12-20T12:01:15;8.80;62.60
17208;DHT22;8720;48.488;9.202;2023-12-20T12:03:42;8.90;63.30
17208;DHT22;8720;48.488;9.202;2023-12-20T12:06:10;8.90;62.80
17208;DHT22;8720;48.488;9.202;2023-12-20T12:08:38;9.00;62.60
17208;DHT22;8720;48.488;9.202;2023-12-20T12:11:06;9.10;62.40
17208;DHT22;8720;48.488;9.202;2023-12-20T12:13:33;9.10;62.10
17208;DHT22;8720;48.488;9.202;2023-12-20T12:16:02;9.10;61.50
17208;DHT22;8720;48.488;9.202;2023-12-20T12:18:31;9.20;60.90
17208;DHT22;8720;48.488;9.202;2023-12-20T12:21:01;9.20;61.20
17208;DHT22;8720;48.488;9.202;2023-12-20T12:23:29;9.20;60.00
17208;DHT22;8720;48.488;9.202;2023-12-20T12:25:56;9.20;60.80
17208;DHT22;8720;48.488;9.202;2023-12-20T12:28:26;9.20;60.50
17208;DHT22;8720;48.488;9.202;2023-12-20T12:30:57;9.10;59.40
17208;DHT22;8720;48.488;9.202;2023-12-20T12:33:26;9.10;58.60
17208;DHT22;8720;48.488;9.202;2023-12-20T12:35:54;9.10;59.30
17208;DHT22;8720;48.488;9.202;2023-12-20T12:38:22;9.10;59.60
17208;DHT22;8720;48.488;9.202;2023-12-20T12:40:50;9.00;59.60
17208;DHT22;8720;48.488;9.202;2023-12-20T12:43:19;9.00;58.80
17208;DHT22;8720;48.488;9.202;2023-12-20T12:45:48;9.00;58.90
17208;DHT22;8720;48.488;9.202;2023-12-20T12:48:16;8.90;59.00
17208;DHT22;8720;48.488;9.202;2023-12-20T12:50:45;8.90;58.90
17208;DHT22;8720;48.488;9.202;2023-12-20T12:53:13;8.90;58.10
17208;DHT22;8720;48.488;9.202;2023-12-20T12:55:40;8.90;58.70
17208;DHT22;8720;48.488;9.202;2023-12-20T12:58:07;8.90;58.70
17208;DHT22;8720;48.488;9.202;2023-12-20T13:00:34;8.80;58.70
17208;DHT22;8720;48.488;9.202;2023-12-20T13:03:02;8.80;58.50
17208;DHT22;8720;48.488;9.202;2023-12-20T13:05:30;8.80;58.30
17208;DHT22;8720;48.488;9.202;2023-12-20T13:08:00;8.80;58.10
17208;DHT22;8720;48.488;9.202;2023-12-20T13:10:27;8.80;57.70
17208;DHT22;8720;48.488;9.202;2023-12-20T13:12:55;8.70;58.20
17208;DHT22;8720;48.488;9.202;2023-12-20T13:15:22;8.70;57.70
17208;DHT22;8720;48.488;9.202;2023-12-20T13:17:50;8.70;57.90
17208;DHT22;8720;48.488;9.202;2023-12-20T13:20:18;8.70;58.60
17208;DHT22;8720;48.488;9.202;2023-12-20T13:22:45;8.70;58.10
17208;DHT22;8720;48.488;9.202;2023-12-20T13:25:14;8.70;58.10
17208;DHT22;8720;48.488;9.202;2023-12-20T13:27:42;8.70;57.40
17208;DHT22;8720;48.488;9.202;2023-12-20T13:30:10;8.80;57.90
17208;DHT22;8720;48.488;9.202;2023-12-20T13:32:37;8.80;57.60
17208;DHT22;8720;48.488;9.202;2023-12-20T13:35:06;8.80;57.80
17208;DHT22;8720;48.488;9.202;2023-12-20T13:37:36;8.80;57.50
17208;DHT22;8720;48.488;9.202;2023-12-20T13:40:04;8.80;57.40
17208;DHT22;8720;48.488;9.202;2023-12-20T13:42:34;8.90;57.50
17208;DHT22;8720;48.488;9.202;2023-12-20T13:45:02;8.90;57.40
17208;DHT22;8720;48.488;9.202;2023-12-20T13:47:30;8.90;58.00
17208;DHT22;8720;48.488;9.202;2023-12-20T13:49:58;8.90;58.20
17208;DHT22;8720;48.488;9.202;2023-12-20T13:52:25;9.00;58.20
17208;DHT22;8720;48.488;9.202;2023-12-20T13:54:53;9.00;57.90
17208;DHT22;8720;48.488;9.202;2023-12-20T13:57:20;9.00;58.40
17208;DHT22;8720;48.488;9.202;2023-12-20T13:59:49;9.10;58.00
17208;DHT22;8720;48.488;9.202;2023-12-20T14:02:16;9.10;57.50
17208;DHT22;8720;48.488;9.202;2023-12-20T14:04:43;9.10;58.00
17208;DHT22;8720;48.488;9.202;2023-12-20T14:07:11;9.10;58.00
17208;DHT22;8720;48.488;9.202;2023-12-20T14:09:38;9.10;57.90
17208;DHT22;8720;48.488;9.202;2023-12-20T14:12:10;9.10;57.90
17208;DHT22;8720;48.488;9.202;2023-12-20T14:14:38;9.10;58.10
17208;DHT22;8720;48.488;9.202;2023-12-20T14:17:07;9.10;58.20
17208;DHT22;8720;48.488;9.202;2023-12-20T14:19:35;9.10;57.90
17208;DHT22;8720;48.488;9.202;2023-12-20T14:22:03;9.10;58.10
17208;DHT22;8720;48.488;9.202;2023-12-20T14:24:30;9.10;58.00
17208;DHT22;8720;48.488;9.202;2023-12-20T14:26:58;9.10;57.80
17208;DHT22;8720;48.488;9.202;2023-12-20T14:29:25;9.10;57.90
17208;DHT22;8720;48.488;9.202;2023-12-20T14:31:53;9.10;57.80
17208;DHT22;8720;48.488;9.202;2023-12-20T14:34:22;9.10;57.90
17208;DHT22;8720;48.488;9.202;2023-12-20T14:36:49;9.00;57.50
17208;DHT22;8720;48.488;9.202;2023-12-20T14:39:18;9.00;57.80
17208;DHT22;8720;48.488;9.202;2023-12-20T14:41:45;9.00;57.80
17208;DHT22;8720;48.488;9.202;2023-12-20T14:44:13;9.00;57.80
17208;DHT22;8720;48.488;9.202;2023-12-20T14:46:41;9.00;57.60
17208;DHT22;8720;48.488;9.202;2023-12-20T14:49:08;8.90;57.90
17208;DHT22;8720;48.488;9.202;2023-12-20T14:51:37;8.90;57.70
17208;DHT22;8720;48.488;9.202;2023-12-20T14:54:05;8.90;57.40
17208;DHT22;8720;48.488;9.202;2023-12-20T14:56:35;8.80;57.80
17208;DHT22;8720;48.488;9.202;2023-12-20T14:59:03;8.80;58.00
17208;DHT22;8720;48.488;9.202;2023-12-20T15:01:30;8.70;58.00
17208;DHT22;8720;48.488;9.202;2023-12-20T15:03:58;8.70;58.00
17208;DHT22;8720;48.488;9.202;2023-12-20T15:06:26;8.70;58.10
17208;DHT22;8720;48.488;9.202;2023-12-20T15:08:55;8.70;58.00
17208;DHT22;8720;48.488;9.202;2023-12-20T15:11:22;8.60;57.60
17208;DHT22;8720;48.488;9.202;2023-12-20T15:13:49;8.60;57.80
17208;DHT22;8720;48.488;9.202;2023-12-20T15:16:21;8.60;58.00
17208;DHT22;8720;48.488;9.202;2023-12-20T15:18:49;8.60;58.20
17208;DHT22;8720;48.488;9.202;2023-12-20T15:21:17;8.50;57.80
17208;DHT22;8720;48.488;9.202;2023-12-20T15:23:45;8.50;58.00
17208;DHT22;8720;48.488;9.202;2023-12-20T15:26:19;8.50;58.20
17208;DHT22;8720;48.488;9.202;2023-12-20T15:28:47;8.40;58.00
17208;DHT22;8720;48.488;9.202;2023-12-20T15:31:14;8.40;58.40
17208;DHT22;8720;48.488;9.202;2023-12-20T15:33:42;8.40;58.50
17208;DHT22;8720;48.488;9.202;2023-12-20T15:36:09;8.40;58.70
17208;DHT22;8720;48.488;9.202;2023-12-20T15:38:37;8.40;58.70
17208;DHT22;8720;48.488;9.202;2023-12-20T15:41:04;8.30;58.60
17208;DHT22;8720;48.488;9.202;2023-12-20T15:43:33;8.30;58.60
17208;DHT22;8720;48.488;9.202;2023-12-20T15:46:02;8.30;58.50
17208;DHT22;8720;48.488;9.202;2023-12-20T15:48:30;8.20;57.70
17208;DHT22;8720;48.488;9.202;2023-12-20T15:50:57;8.20;58.00
17208;DHT22;8720;48.488;9.202;2023-12-20T15:53:24;8.20;58.20
17208;DHT22;8720;48.488;9.202;2023-12-20T15:55:52;8.20;58.30
17208;DHT22;8720;48.488;9.202;2023-12-20T15:58:19;8.20;58.30
17208;DHT22;8720;48.488;9.202;2023-12-20T16:00:48;8.10;58.10
17208;DHT22;8720;48.488;9.202;2023-12-20T16:03:16;8.00;57.60
17208;DHT22;8720;48.488;9.202;2023-12-20T16:05:44;8.00;57.80
17208;DHT22;8720;48.488;9.202;2023-12-20T16:08:11;7.90;57.90
17208;DHT22;8720;48.488;9.202;2023-12-20T16:10:40;7.90;58.00